Station Historical Data
Daily Summary for March 18, 2012 Units:  Metric    English   Both
« Previous Day
Next Day »
Daily Weekly Monthly Yearly Custom
  High: Low: Average:
Temperature: 27.1 °C 15.9 °C 21.2 °C
Dew Point: 17.5 °C 10.2 °C 13.4 °C
Humidity: 83% 38% 63%
Wind Speed: 17.7km/h 0km/h 4.8km/h
Wind Gust: 22.5km/h - -
Wind- - SSE
Pressure: 1022.6 hPa 1017.8 hPa -
Precipitation: 0 mm    
Historical Graphs
 
 
Tabular Data for March 18, 2012
Time Temperature Dew Point Pressure Wind Wind Speed Wind Gust Humidity Rainfall Rate (Hourly) Conditions
00:00 19.5 °C 14.9 °C 1019.2 hPa East 3.2 km/h 3.2 km/h 75% 0 mm
00:05 19.3 °C 15 °C 1019.5 hPa East 1.6 km/h 3.2 km/h 76% 0 mm
00:10 19.1 °C 15 °C 1019.5 hPa Calm   1.6 km/h 77% 0 mm
00:16 19 °C 14.9 °C 1019.5 hPa East 1.6 km/h 3.2 km/h 77% 0 mm
00:20 19 °C 14.9 °C 1019.5 hPa East 3.2 km/h 4.8 km/h 77% 0 mm
00:26 19.2 °C 14.8 °C 1019.5 hPa ESE 3.2 km/h 4.8 km/h 76% 0 mm
00:31 18.9 °C 14.6 °C 1019.5 hPa Calm   3.2 km/h 76% 0 mm
00:36 18.4 °C 14.5 °C 1019.5 hPa Calm   1.6 km/h 78% 0 mm
00:41 18.2 °C 14.4 °C 1019.5 hPa Calm   3.2 km/h 79% 0 mm
00:46 18.3 °C 14.6 °C 1019.5 hPa East 1.6 km/h 1.6 km/h 79% 0 mm
00:51 18.4 °C 14.6 °C 1019.5 hPa Calm   1.6 km/h 78% 0 mm
00:56 18.3 °C 14.6 °C 1019.5 hPa Calm     79% 0 mm
01:01 18.2 °C 14.5 °C 1019.5 hPa ESE 1.6 km/h 1.6 km/h 79% 0 mm
01:06 18.2 °C 14.4 °C 1019.5 hPa ESE 1.6 km/h 1.6 km/h 79% 0 mm
01:11 18.1 °C 14.3 °C 1019.5 hPa Calm     79% 0 mm
01:16 18.1 °C 14.3 °C 1019.5 hPa Calm     79% 0 mm
01:21 17.9 °C 14.3 °C 1019.5 hPa Calm     79% 0 mm
01:26 17.8 °C 14.3 °C 1019.5 hPa Calm   1.6 km/h 80% 0 mm
01:31 18.1 °C 14.6 °C 1019.5 hPa SSE 1.6 km/h 1.6 km/h 80% 0 mm
01:36 18.3 °C 14.4 °C 1019.5 hPa SE 1.6 km/h 3.2 km/h 78% 0 mm
01:41 18.4 °C 14.3 °C 1019.2 hPa SSE 1.6 km/h 4.8 km/h 77% 0 mm
01:46 18.6 °C 14.3 °C 1019.5 hPa SE 3.2 km/h 6.4 km/h 76% 0 mm
01:51 18.9 °C 14.2 °C 1019.2 hPa SSE 3.2 km/h 6.4 km/h 74% 0 mm
01:56 19.2 °C 14.1 °C 1019.5 hPa SSE 4.8 km/h 4.8 km/h 72% 0 mm
02:01 19.2 °C 14.1 °C 1019.5 hPa SE 4.8 km/h 4.8 km/h 72% 0 mm
02:06 19.1 °C 13.9 °C 1019.5 hPa SSE 4.8 km/h 4.8 km/h 72% 0 mm
02:11 19 °C 13.8 °C 1019.5 hPa SSE 4.8 km/h 4.8 km/h 72% 0 mm
02:16 19.1 °C 13.7 °C 1019.5 hPa SE 3.2 km/h 6.4 km/h 71% 0 mm
02:21 19.1 °C 13.7 °C 1019.5 hPa SSE 4.8 km/h 4.8 km/h 71% 0 mm
02:26 19 °C 13.6 °C 1019.5 hPa SSE 3.2 km/h 4.8 km/h 71% 0 mm
02:31 19 °C 13.6 °C 1019.5 hPa SSE 3.2 km/h 4.8 km/h 71% 0 mm
02:36 18.8 °C 13.7 °C 1019.5 hPa South 1.6 km/h 3.2 km/h 72% 0 mm
02:41 18.7 °C 13.5 °C 1019.5 hPa South 3.2 km/h 3.2 km/h 72% 0 mm
02:46 18.7 °C 13.5 °C 1019.5 hPa SSE 3.2 km/h 4.8 km/h 72% 0 mm
02:51 18.7 °C 13.5 °C 1019.5 hPa South 3.2 km/h 8 km/h 72% 0 mm
02:56 18.7 °C 13.6 °C 1019.5 hPa SSE 3.2 km/h 4.8 km/h 72% 0 mm
03:01 18.9 °C 13.5 °C 1019.5 hPa South 3.2 km/h 6.4 km/h 71% 0 mm
03:06 18.9 °C 13.6 °C 1019.5 hPa SW 3.2 km/h 4.8 km/h 71% 0 mm
03:11 18.9 °C 13.5 °C 1019.5 hPa South 1.6 km/h 4.8 km/h 71% 0 mm
03:16 18.8 °C 13.4 °C 1019.5 hPa SSW 1.6 km/h 4.8 km/h 71% 0 mm
03:21 18.8 °C 13.4 °C 1019.5 hPa South 4.8 km/h 4.8 km/h 71% 0 mm
03:26 18.9 °C 13.3 °C 1019.2 hPa SSE 3.2 km/h 6.4 km/h 70% 0 mm
03:31 18.9 °C 13.3 °C 1019.5 hPa SSE 3.2 km/h 4.8 km/h 70% 0 mm
03:36 18.9 °C 13.3 °C 1019.5 hPa SSE 4.8 km/h 6.4 km/h 70% 0 mm
03:42 18.9 °C 13.3 °C 1019.5 hPa SSE 3.2 km/h 6.4 km/h 70% 0 mm
03:47 18.8 °C 13.2 °C 1019.2 hPa SSE 3.2 km/h 6.4 km/h 70% 0 mm
03:52 18.6 °C 13.4 °C 1019.2 hPa SE 3.2 km/h 4.8 km/h 72% 0 mm
03:57 18.2 °C 13.3 °C 1019.2 hPa SSE 3.2 km/h 3.2 km/h 73% 0 mm
04:02 17.9 °C 13.2 °C 1019.2 hPa SSE 1.6 km/h 3.2 km/h 74% 0 mm
04:07 17.8 °C 13.3 °C 1019.2 hPa SSE 1.6 km/h 3.2 km/h 75% 0 mm
04:12 17.9 °C 13.4 °C 1019.2 hPa SE 1.6 km/h 1.6 km/h 75% 0 mm
04:17 17.8 °C 13.3 °C 1019.2 hPa SE 1.6 km/h 3.2 km/h 75% 0 mm
04:22 17.7 °C 13.4 °C 1019.2 hPa SE 1.6 km/h 1.6 km/h 76% 0 mm
04:27 17.6 °C 13.3 °C 1019.2 hPa SE 1.6 km/h 1.6 km/h 76% 0 mm
04:32 17.5 °C 13.2 °C 1019.2 hPa SSE 1.6 km/h 1.6 km/h 76% 0 mm
04:37 17.4 °C 13.4 °C 1019.2 hPa SSE 1.6 km/h 1.6 km/h 77% 0 mm
04:42 17.3 °C 13.2 °C 1019.2 hPa SE 1.6 km/h 1.6 km/h 77% 0 mm
04:47 17.1 °C 13.2 °C 1018.8 hPa SSE 3.2 km/h 3.2 km/h 78% 0 mm
04:52 17.1 °C 13.2 °C 1018.8 hPa SSE 3.2 km/h 4.8 km/h 78% 0 mm
04:57 17.2 °C 13.2 °C 1018.8 hPa SSE 3.2 km/h 3.2 km/h 77% 0 mm
05:02 17.3 °C 13.2 °C 1018.8 hPa SSE 1.6 km/h 3.2 km/h 77% 0 mm
05:07 17.2 °C 13.1 °C 1018.8 hPa SE 3.2 km/h 3.2 km/h 77% 0 mm
05:12 17.1 °C 13.1 °C 1018.8 hPa SE 1.6 km/h 3.2 km/h 77% 0 mm
05:17 17 °C 13.2 °C 1018.8 hPa SSE 3.2 km/h 3.2 km/h 78% 0 mm
05:22 16.9 °C 13.1 °C 1018.8 hPa SSE 4.8 km/h 4.8 km/h 78% 0 mm
05:27 16.8 °C 12.9 °C 1018.8 hPa SSE 3.2 km/h 4.8 km/h 78% 0 mm
05:32 16.6 °C 12.9 °C 1019.2 hPa SSE 8 km/h 9.7 km/h 79% 0 mm
05:37 16.5 °C 12.8 °C 1019.2 hPa SSE 4.8 km/h 8 km/h 79% 0 mm
05:42 16.7 °C 13 °C 1019.2 hPa South 8 km/h 8 km/h 79% 0 mm
05:47 16.6 °C 12.9 °C 1019.2 hPa SSE 6.4 km/h 8 km/h 79% 0 mm
05:52 16.6 °C 13.1 °C 1019.2 hPa SSE 3.2 km/h 4.8 km/h 80% 0 mm
05:57 16.5 °C 13.1 °C 1019.2 hPa SSE 3.2 km/h 6.4 km/h 80% 0 mm
06:02 16.6 °C 12.9 °C 1019.2 hPa SSE 1.6 km/h 3.2 km/h 79% 0 mm
06:07 16.7 °C 13.1 °C 1019.5 hPa SE 1.6 km/h 3.2 km/h 79% 0 mm
06:12 16.6 °C 12.9 °C 1019.5 hPa SE 1.6 km/h 1.6 km/h 79% 0 mm
06:17 16.3 °C 12.9 °C 1019.5 hPa SSE 3.2 km/h 3.2 km/h 80% 0 mm
06:22 16.2 °C 12.8 °C 1019.5 hPa SE 3.2 km/h 4.8 km/h 80% 0 mm
06:27 16.2 °C 12.9 °C 1019.5 hPa SE 3.2 km/h 4.8 km/h 81% 0 mm
06:32 16.3 °C 13.1 °C 1019.5 hPa SE 3.2 km/h 4.8 km/h 81% 0 mm
06:38 16.3 °C 12.9 °C 1019.9 hPa SSE 4.8 km/h 6.4 km/h 80% 0 mm
06:43 16.3 °C 12.9 °C 1019.9 hPa SE 4.8 km/h 6.4 km/h 80% 0 mm
06:48 16.4 °C 13 °C 1019.9 hPa SE 3.2 km/h 4.8 km/h 80% 0 mm
06:53 16.6 °C 13.1 °C 1019.5 hPa SE 4.8 km/h 8 km/h 80% 0 mm
06:58 16.7 °C 13 °C 1019.9 hPa SSE 3.2 km/h 4.8 km/h 79% 0 mm
07:03 16.6 °C 12.9 °C 1019.9 hPa SSE 3.2 km/h 3.2 km/h 79% 0 mm
07:08 16.6 °C 12.9 °C 1019.9 hPa SE 3.2 km/h 3.2 km/h 79% 0 mm
07:13 16.4 °C 12.9 °C 1019.9 hPa SE 3.2 km/h 3.2 km/h 80% 0 mm
07:18 16.2 °C 12.9 °C 1020.2 hPa SSE 3.2 km/h 3.2 km/h 81% 0 mm
07:23 16.2 °C 12.9 °C 1020.2 hPa SSE 3.2 km/h 4.8 km/h 81% 0 mm
07:28 16.2 °C 12.9 °C 1020.2 hPa South 4.8 km/h 6.4 km/h 81% 0 mm
07:33 16.2 °C 12.9 °C 1020.2 hPa SE 1.6 km/h 3.2 km/h 81% 0 mm
07:38 16.2 °C 13.1 °C 1020.2 hPa SE 3.2 km/h 4.8 km/h 82% 0 mm
07:43 16.2 °C 12.9 °C 1020.5 hPa SSE 3.2 km/h 4.8 km/h 81% 0 mm
07:48 16.1 °C 13 °C 1020.5 hPa SSE 1.6 km/h 4.8 km/h 82% 0 mm
07:53 15.9 °C 13.1 °C 1020.5 hPa SE 3.2 km/h 6.4 km/h 83% 0 mm
07:58 16.2 °C 13.2 °C 1020.5 hPa SSE 3.2 km/h 4.8 km/h 82% 0 mm
08:03 16.3 °C 13.1 °C 1020.5 hPa SSE 1.6 km/h 8 km/h 81% 0 mm
08:08 16.3 °C 13.1 °C 1020.5 hPa SSE 3.2 km/h 6.4 km/h 81% 0 mm
08:13 16.4 °C 13.1 °C 1020.5 hPa SSE 1.6 km/h 3.2 km/h 81% 0 mm
08:18 16.6 °C 13.3 °C 1020.9 hPa SE 1.6 km/h 3.2 km/h 81% 0 mm
08:23 16.8 °C 13.3 °C 1020.9 hPa SE 1.6 km/h 3.2 km/h 80% 0 mm
08:28 17.1 °C 13.4 °C 1020.9 hPa Calm   1.6 km/h 79% 0 mm
08:33 17.4 °C 13.6 °C 1020.9 hPa Calm     78% 0 mm
08:38 17.9 °C 13.9 °C 1021.2 hPa Calm     77% 0 mm
08:43 18.2 °C 13.9 °C 1021.2 hPa Calm     76% 0 mm
08:49 18.1 °C 13.8 °C 1021.2 hPa Calm     76% 0 mm
08:54 18.3 °C 14.2 °C 1021.2 hPa Calm     77% 0 mm
08:59 18.6 °C 14.3 °C 1021.2 hPa Calm     76% 0 mm
09:04 18.9 °C 14.4 °C 1021.6 hPa Calm     75% 0 mm
09:09 19.1 °C 14.9 °C 1021.6 hPa Calm     77% 0 mm
09:14 18.9 °C 14.8 °C 1021.6 hPa ESE 1.6 km/h 1.6 km/h 77% 0 mm
09:19 18.8 °C 14.7 °C 1021.6 hPa Calm   1.6 km/h 77% 0 mm
09:24 18.8 °C 14.3 °C 1021.6 hPa SSE 1.6 km/h 1.6 km/h 75% 0 mm
09:29 18.7 °C 14.4 °C 1021.9 hPa SSE 1.6 km/h 1.6 km/h 76% 0 mm
09:34 18.6 °C 14.4 °C 1021.9 hPa ESE 3.2 km/h 3.2 km/h 77% 0 mm
09:39 18.4 °C 14.2 °C 1021.9 hPa SE 1.6 km/h 6.4 km/h 76% 0 mm
09:44 18.6 °C 14.5 °C 1021.9 hPa SE 3.2 km/h 4.8 km/h 77% 0 mm
09:49 18.9 °C 14.6 °C 1021.9 hPa SE 4.8 km/h 8 km/h 76% 0 mm
09:54 19.2 °C 14.6 °C 1021.9 hPa SSE 3.2 km/h 6.4 km/h 75% 0 mm
09:59 19.4 °C 14.6 °C 1021.9 hPa SSE 6.4 km/h 8 km/h 74% 0 mm
10:04 19.6 °C 15.1 °C 1021.9 hPa SSE 4.8 km/h 8 km/h 75% 0 mm
10:10 19.9 °C 15.2 °C 1021.9 hPa SE 4.8 km/h 8 km/h 74% 0 mm
10:15 20.2 °C 15.2 °C 1021.9 hPa SSE 4.8 km/h 6.4 km/h 73% 0 mm
10:20 20.3 °C 14.8 °C 1022.2 hPa SSE 6.4 km/h 8 km/h 71% 0 mm
10:25 20.3 °C 14.8 °C 1022.2 hPa SSE 4.8 km/h 11.3 km/h 71% 0 mm
10:30 20.4 °C 15 °C 1022.2 hPa SE 4.8 km/h 9.7 km/h 71% 0 mm
10:35 20.6 °C 14.9 °C 1022.2 hPa SSE 6.4 km/h 8 km/h 70% 0 mm
10:40 20.8 °C 15.4 °C 1022.2 hPa SSE 8 km/h 8 km/h 71% 0 mm
10:45 21.1 °C 15.2 °C 1022.2 hPa SE 4.8 km/h 9.7 km/h 69% 0 mm
10:50 21.2 °C 15.3 °C 1022.2 hPa SSE 3.2 km/h 8 km/h 69% 0 mm
10:55 21.4 °C 15.4 °C 1022.6 hPa WSW 6.4 km/h 6.4 km/h 69% 0 mm
11:00 21.7 °C 15.7 °C 1022.6 hPa South 3.2 km/h 6.4 km/h 69% 0 mm
11:05 21.9 °C 15.7 °C 1022.6 hPa WSW 6.4 km/h 8 km/h 68% 0 mm
11:10 21.8 °C 15.7 °C 1022.6 hPa SSE 4.8 km/h 6.4 km/h 68% 0 mm
11:15 21.9 °C 15.8 °C 1022.6 hPa West 4.8 km/h 8 km/h 68% 0 mm
11:20 22.2 °C 15.8 °C 1022.6 hPa SW 4.8 km/h 6.4 km/h 67% 0 mm
11:25 22.4 °C 16.2 °C 1022.6 hPa SW 6.4 km/h 6.4 km/h 68% 0 mm
11:30 22.7 °C 16.5 °C 1022.6 hPa SW 3.2 km/h 6.4 km/h 68% 0 mm
11:35 22.9 °C 16.5 °C 1022.6 hPa SSE 9.7 km/h 9.7 km/h 67% 0 mm
11:36 22.9 °C 16.5 °C 1022.6 hPa SSE 6.4 km/h 9.7 km/h 67% 0 mm
11:41 23 °C 16.6 °C 1022.6 hPa South 8 km/h 8 km/h 67% 0 mm
11:46 23.2 °C 16.3 °C 1022.6 hPa South 3.2 km/h 9.7 km/h 65% 0 mm
11:51 23.4 °C 16.7 °C 1022.6 hPa WSW 3.2 km/h 4.8 km/h 66% 0 mm
11:56 23.4 °C 16.7 °C 1022.2 hPa West 3.2 km/h 6.4 km/h 66% 0 mm
12:01 23.5 °C 16.6 °C 1022.2 hPa ESE 4.8 km/h 8 km/h 65% 0 mm
12:06 23.7 °C 17.4 °C 1022.2 hPa South 4.8 km/h 6.4 km/h 68% 0 mm
12:11 23.9 °C 17.2 °C 1022.2 hPa SSW 3.2 km/h 4.8 km/h 66% 0 mm
12:16 24.1 °C 16.6 °C 1022.2 hPa South 3.2 km/h 8 km/h 63% 0 mm
12:21 24.3 °C 17.3 °C 1022.2 hPa ESE 3.2 km/h 6.4 km/h 65% 0 mm
12:26 24.3 °C 16.8 °C 1021.9 hPa SSE 6.4 km/h 11.3 km/h 63% 0 mm
12:31 24.3 °C 17.5 °C 1021.9 hPa SSE 4.8 km/h 6.4 km/h 66% 0 mm
12:36 24.4 °C 17.4 °C 1021.9 hPa WSW 6.4 km/h 11.3 km/h 65% 0 mm
12:41 24.4 °C 17.2 °C 1021.9 hPa SSE 8 km/h 9.7 km/h 64% 0 mm
12:46 24.5 °C 16.5 °C 1021.9 hPa WSW 4.8 km/h 9.7 km/h 61% 0 mm
12:51 24.5 °C 17.2 °C 1021.9 hPa East 6.4 km/h 6.4 km/h 64% 0 mm
12:56 24.7 °C 16.4 °C 1021.6 hPa SSW 3.2 km/h 8 km/h 60% 0 mm
13:01 24.8 °C 16.5 °C 1021.6 hPa NE 3.2 km/h 12.9 km/h 60% 0 mm
13:06 24.7 °C 17.2 °C 1021.6 hPa SE 8 km/h 12.9 km/h 63% 0 mm
13:12 24.7 °C 16.4 °C 1021.6 hPa SE 8 km/h 9.7 km/h 60% 0 mm
13:17 24.7 °C 15.1 °C 1021.6 hPa SSE 8 km/h 11.3 km/h 55% 0 mm
13:22 25.1 °C 15.4 °C 1021.6 hPa SE 8 km/h 9.7 km/h 55% 0 mm
13:27 25.2 °C 16.1 °C 1021.2 hPa ESE 4.8 km/h 6.4 km/h 57% 0 mm
13:32 25.1 °C 15.7 °C 1021.2 hPa SE 8 km/h 8 km/h 56% 0 mm
13:37 24.8 °C 15.2 °C 1021.2 hPa ESE 8 km/h 14.5 km/h 55% 0 mm
13:42 24.7 °C 15.4 °C 1020.9 hPa ESE 4.8 km/h 8 km/h 56% 0 mm
13:47 25 °C 15.6 °C 1020.9 hPa South 9.7 km/h 14.5 km/h 56% 0 mm
13:52 25.1 °C 15.7 °C 1020.9 hPa SSE 3.2 km/h 9.7 km/h 56% 0 mm
13:57 25.2 °C 15.6 °C 1020.9 hPa ESE 4.8 km/h 12.9 km/h 55% 0 mm
14:02 25.5 °C 15.8 °C 1020.5 hPa ESE 8 km/h 11.3 km/h 55% 0 mm
14:07 25.3 °C 15.6 °C 1020.5 hPa ESE 12.9 km/h 12.9 km/h 55% 0 mm
14:12 25.3 °C 16.2 °C 1020.5 hPa SE 9.7 km/h 17.7 km/h 57% 0 mm
14:17 25 °C 14.8 °C 1020.2 hPa SE 11.3 km/h 17.7 km/h 53% 0 mm
14:22 25.1 °C 15.2 °C 1020.2 hPa SE 8 km/h 12.9 km/h 54% 0 mm
14:27 25.2 °C 14.4 °C 1020.2 hPa ESE 16.1 km/h 20.9 km/h 51% 0 mm
14:32 25.1 °C 14.3 °C 1020.2 hPa ESE 12.9 km/h 22.5 km/h 51% 0 mm
14:37 25.3 °C 13.9 °C 1020.2 hPa SE 6.4 km/h 16.1 km/h 49% 0 mm
14:42 25.6 °C 13.4 °C 1020.2 hPa ESE 12.9 km/h 14.5 km/h 47% 0 mm
14:47 25.4 °C 14.8 °C 1019.9 hPa ESE 9.7 km/h 14.5 km/h 52% 0 mm
14:52 25.3 °C 13.6 °C 1019.9 hPa ESE 17.7 km/h 19.3 km/h 48% 0 mm
14:57 25.4 °C 14.6 °C 1019.9 hPa SSW 11.3 km/h 14.5 km/h 51% 0 mm
15:02 25.4 °C 14.9 °C 1019.9 hPa SE 11.3 km/h 14.5 km/h 52% 0 mm
15:07 25.5 °C 13.7 °C 1019.5 hPa SE 14.5 km/h 19.3 km/h 48% 0 mm
15:12 25.9 °C 13.7 °C 1019.5 hPa SE 11.3 km/h 17.7 km/h 47% 0 mm
15:17 26 °C 14.4 °C 1019.5 hPa SE 9.7 km/h 17.7 km/h 49% 0 mm
15:22 25.8 °C 13 °C 1019.5 hPa SE 8 km/h 14.5 km/h 45% 0 mm
15:27 25.9 °C 14.4 °C 1019.2 hPa South 12.9 km/h 12.9 km/h 49% 0 mm
15:32 26 °C 14.4 °C 1019.2 hPa SE 11.3 km/h 17.7 km/h 49% 0 mm
15:38 26.2 °C 12.3 °C 1019.2 hPa SSW 4.8 km/h 9.7 km/h 42% 0 mm
15:43 26 °C 10.6 °C 1019.2 hPa SSE 11.3 km/h 17.7 km/h 38% 0 mm
15:48 26.1 °C 12.5 °C 1019.2 hPa SE 14.5 km/h 20.9 km/h 43% 0 mm
15:53 26.2 °C 13.7 °C 1018.8 hPa South 11.3 km/h 16.1 km/h 46% 0 mm
15:58 26.1 °C 13.6 °C 1019.2 hPa SE 9.7 km/h 19.3 km/h 46% 0 mm
16:03 26.1 °C 12.5 °C 1018.8 hPa SSE 9.7 km/h 9.7 km/h 43% 0 mm
16:08 26.3 °C 14.1 °C 1018.8 hPa SSW 6.4 km/h 17.7 km/h 47% 0 mm
16:13 26.4 °C 12.8 °C 1018.8 hPa SSE 11.3 km/h 12.9 km/h 43% 0 mm
16:18 26.2 °C 12.7 °C 1018.8 hPa SE 4.8 km/h 16.1 km/h 43% 0 mm
16:23 26.1 °C 13.6 °C 1018.8 hPa SSE 8 km/h 12.9 km/h 46% 0 mm
16:28 25.9 °C 12.7 °C 1018.8 hPa SSW 8 km/h 16.1 km/h 44% 0 mm
16:34 25.7 °C 11.1 °C 1018.8 hPa South 8 km/h 12.9 km/h 40% 0 mm
16:39 25.7 °C 11.8 °C 1018.8 hPa South 3.2 km/h 9.7 km/h 42% 0 mm
16:44 25.8 °C 12.3 °C 1018.8 hPa South 9.7 km/h 14.5 km/h 43% 0 mm
16:49 26.1 °C 12.6 °C 1018.5 hPa SW 9.7 km/h 19.3 km/h 43% 0 mm
16:54 26.4 °C 12.4 °C 1018.8 hPa SSE 11.3 km/h 17.7 km/h 42% 0 mm
16:59 26.5 °C 13.3 °C 1018.5 hPa South 8 km/h 17.7 km/h 44% 0 mm
17:04 26.7 °C 12.4 °C 1018.5 hPa SSE 6.4 km/h 12.9 km/h 41% 0 mm
17:09 26.9 °C 12.6 °C 1018.5 hPa South 8 km/h 8 km/h 41% 0 mm
17:14 27.1 °C 11.9 °C 1018.5 hPa South 6.4 km/h 16.1 km/h 39% 0 mm
17:19 26.7 °C 12.7 °C 1018.5 hPa SSE 9.7 km/h 16.1 km/h 42% 0 mm
17:24 26.2 °C 13 °C 1018.5 hPa SSE 8 km/h 11.3 km/h 44% 0 mm
17:29 26 °C 12.4 °C 1018.2 hPa SW 4.8 km/h 9.7 km/h 43% 0 mm
17:34 26.1 °C 11.4 °C 1018.2 hPa SSE 6.4 km/h 14.5 km/h 40% 0 mm
17:39 26.2 °C 11.5 °C 1018.2 hPa SE 6.4 km/h 14.5 km/h 40% 0 mm
17:44 26.4 °C 12.1 °C 1018.2 hPa SSW 4.8 km/h 12.9 km/h 41% 0 mm
17:49 26.6 °C 12.6 °C 1018.2 hPa SE 11.3 km/h 14.5 km/h 42% 0 mm
17:54 26.4 °C 12.9 °C 1018.2 hPa SE 11.3 km/h 11.3 km/h 43% 0 mm
17:59 26.3 °C 12.4 °C 1018.2 hPa SSE 4.8 km/h 14.5 km/h 42% 0 mm
18:04 26.1 °C 12.2 °C 1018.2 hPa SE 6.4 km/h 14.5 km/h 42% 0 mm
18:09 25.8 °C 12.9 °C 1018.2 hPa SSE 12.9 km/h 14.5 km/h 45% 0 mm
18:14 25.4 °C 12.3 °C 1018.2 hPa South 4.8 km/h 20.9 km/h 44% 0 mm
18:19 25.4 °C 12.6 °C 1018.2 hPa SSE 9.7 km/h 12.9 km/h 45% 0 mm
18:24 25.2 °C 12.4 °C 1018.2 hPa SSE 9.7 km/h 12.9 km/h 45% 0 mm
18:29 25.1 °C 12.3 °C 1018.2 hPa SSE 9.7 km/h 12.9 km/h 45% 0 mm
18:34 24.9 °C 11.8 °C 1018.2 hPa SE 12.9 km/h 12.9 km/h 44% 0 mm
18:39 24.9 °C 12.2 °C 1018.2 hPa SSE 8 km/h 14.5 km/h 45% 0 mm
18:44 24.7 °C 12.7 °C 1017.8 hPa South 8 km/h 8 km/h 47% 0 mm
18:49 24.6 °C 13.2 °C 1017.8 hPa SE 4.8 km/h 9.7 km/h 49% 0 mm
18:54 24.5 °C 12.1 °C 1017.8 hPa SSE 8 km/h 14.5 km/h 46% 0 mm
18:59 24.4 °C 12.4 °C 1017.8 hPa SSE 4.8 km/h 9.7 km/h 47% 0 mm
19:04 24.2 °C 12.8 °C 1017.8 hPa SSE 4.8 km/h 4.8 km/h 49% 0 mm
19:09 24.1 °C 12.4 °C 1017.8 hPa SSE 3.2 km/h 6.4 km/h 48% 0 mm
19:15 24.1 °C 12.4 °C 1017.8 hPa SE 4.8 km/h 6.4 km/h 48% 0 mm
19:20 24.3 °C 12 °C 1017.8 hPa SE 4.8 km/h 4.8 km/h 46% 0 mm
19:25 24.4 °C 12.4 °C 1017.8 hPa SE 6.4 km/h 6.4 km/h 47% 0 mm
19:30 24.4 °C 12.4 °C 1017.8 hPa SE 4.8 km/h 6.4 km/h 47% 0 mm
19:35 24.4 °C 12.3 °C 1017.8 hPa SE 3.2 km/h 6.4 km/h 47% 0 mm
19:40 24.4 °C 12.1 °C 1017.8 hPa ESE 4.8 km/h 6.4 km/h 46% 0 mm
19:45 24.3 °C 12.3 °C 1017.8 hPa SE 3.2 km/h 4.8 km/h 47% 0 mm
19:50 24 °C 12 °C 1018.2 hPa SE 3.2 km/h 4.8 km/h 47% 0 mm
19:55 23.9 °C 11.9 °C 1018.2 hPa ESE 3.2 km/h 4.8 km/h 47% 0 mm
20:00 23.8 °C 11.8 °C 1017.8 hPa ESE 4.8 km/h 6.4 km/h 47% 0 mm
20:05 23.6 °C 11.9 °C 1017.8 hPa ESE 3.2 km/h 4.8 km/h 48% 0 mm
20:10 23.3 °C 12 °C 1017.8 hPa ESE 4.8 km/h 6.4 km/h 49% 0 mm
20:15 23.2 °C 11.6 °C 1017.8 hPa ESE 3.2 km/h 4.8 km/h 48% 0 mm
20:20 23.2 °C 11.6 °C 1017.8 hPa SE 3.2 km/h 4.8 km/h 48% 0 mm
20:25 23 °C 11.7 °C 1018.2 hPa ESE 3.2 km/h 4.8 km/h 49% 0 mm
20:30 22.8 °C 11.5 °C 1017.8 hPa ESE 3.2 km/h 4.8 km/h 49% 0 mm
20:35 22.4 °C 11.5 °C 1018.2 hPa ESE 4.8 km/h 4.8 km/h 50% 0 mm
20:40 22.4 °C 11.2 °C 1017.8 hPa SE 6.4 km/h 6.4 km/h 49% 0 mm
20:46 22.5 °C 10.9 °C 1018.2 hPa SE 4.8 km/h 8 km/h 48% 0 mm
20:51 22.6 °C 11 °C 1018.2 hPa ESE 6.4 km/h 6.4 km/h 48% 0 mm
20:56 22.4 °C 10.9 °C 1018.2 hPa SE 4.8 km/h 6.4 km/h 48% 0 mm
21:01 22.4 °C 10.6 °C 1018.2 hPa ESE 6.4 km/h 6.4 km/h 47% 0 mm
21:06 22.4 °C 10.6 °C 1018.2 hPa SE 4.8 km/h 6.4 km/h 47% 0 mm
21:11 22.3 °C 10.7 °C 1018.2 hPa ESE 6.4 km/h 6.4 km/h 48% 0 mm
21:16 22.2 °C 10.7 °C 1018.2 hPa ESE 4.8 km/h 6.4 km/h 48% 0 mm
21:21 22 °C 10.5 °C 1018.2 hPa ESE 4.8 km/h 6.4 km/h 48% 0 mm
21:26 21.9 °C 10.4 °C 1018.2 hPa ESE 4.8 km/h 6.4 km/h 48% 0 mm
21:31 21.9 °C 10.4 °C 1018.2 hPa ESE 4.8 km/h 6.4 km/h 48% 0 mm
21:36 21.7 °C 10.5 °C 1018.2 hPa ESE 4.8 km/h 6.4 km/h 49% 0 mm
21:41 21.5 °C 10.3 °C 1018.2 hPa ESE 4.8 km/h 6.4 km/h 49% 0 mm
21:46 21.5 °C 10.3 °C 1018.2 hPa ESE 4.8 km/h 6.4 km/h 49% 0 mm
21:51 21.4 °C 10.2 °C 1018.2 hPa ESE 4.8 km/h 4.8 km/h 49% 0 mm
21:56 21.4 °C 10.3 °C 1018.2 hPa SE 3.2 km/h 8 km/h 49% 0 mm
22:01 21.5 °C 10.3 °C 1018.2 hPa SE 6.4 km/h 6.4 km/h 49% 0 mm
22:06 21.5 °C 10.3 °C 1018.2 hPa SE 4.8 km/h 6.4 km/h 49% 0 mm
22:11 21.3 °C 10.8 °C 1018.5 hPa ESE 4.8 km/h 8 km/h 51% 0 mm
22:16 21.2 °C 10.7 °C 1018.5 hPa SE 4.8 km/h 8 km/h 51% 0 mm
22:21 20.9 °C 10.7 °C 1018.5 hPa SE 3.2 km/h 8 km/h 52% 0 mm
22:26 20.4 °C 10.6 °C 1018.5 hPa SSE 3.2 km/h 4.8 km/h 53% 0 mm
22:31 20.3 °C 10.7 °C 1018.5 hPa SE 4.8 km/h 6.4 km/h 54% 0 mm
22:36 20.2 °C 10.8 °C 1018.5 hPa SE 1.6 km/h 3.2 km/h 55% 0 mm
22:41 19.9 °C 10.9 °C 1018.5 hPa South 1.6 km/h 4.8 km/h 56% 0 mm
22:46 20 °C 10.4 °C 1018.5 hPa South 3.2 km/h 4.8 km/h 54% 0 mm
22:51 20.1 °C 10.4 °C 1018.5 hPa SSW 3.2 km/h 3.2 km/h 54% 0 mm
22:56 19.9 °C 10.7 °C 1018.5 hPa SSW 1.6 km/h 4.8 km/h 55% 0 mm
23:01 19.9 °C 10.6 °C 1018.5 hPa SE 6.4 km/h 6.4 km/h 55% 0 mm
23:06 19.9 °C 10.6 °C 1018.5 hPa South 4.8 km/h 4.8 km/h 55% 0 mm
23:11 19.9 °C 10.7 °C 1018.5 hPa South 3.2 km/h 6.4 km/h 55% 0 mm
23:16 19.8 °C 10.8 °C 1018.5 hPa SSE 4.8 km/h 6.4 km/h 56% 0 mm
23:21 19.4 °C 10.9 °C 1018.5 hPa SE 1.6 km/h 3.2 km/h 58% 0 mm
23:26 19 °C 10.8 °C 1018.8 hPa SSE 3.2 km/h 3.2 km/h 59% 0 mm
23:31 18.9 °C 10.7 °C 1018.8 hPa SE 3.2 km/h 4.8 km/h 59% 0 mm
23:36 18.7 °C 10.8 °C 1018.5 hPa SSE 3.2 km/h 3.2 km/h 60% 0 mm
23:41 18.6 °C 10.7 °C 1018.8 hPa SE 4.8 km/h 4.8 km/h 60% 0 mm
23:46 18.7 °C 10.8 °C 1018.5 hPa SE 3.2 km/h 4.8 km/h 60% 0 mm
23:51 18.9 °C 10.5 °C 1018.5 hPa SSE 6.4 km/h 6.4 km/h 58% 0 mm
23:56 19.1 °C 10.7 °C 1018.5 hPa SE 4.8 km/h 4.8 km/h 58% 0 mm
Compliments of Weather Underground